Time;durP1;ratioP1;P1;durP2;ratioP2;P2;SDS_P1;SDS_P2;PMS_P1;PMS_P2;Temp;Humidity;BMP_temperature;BMP_pressure;BME280_temperature;BME280_humidity;BME280_pressure;Samples;Min_cycle;Max_cycle;Signal;HPM_P1;HPM_P2
2022/08/03 00:01:52;;;;;;;19.08;8.25;;;21.50;64.90;;;;;;5071699;28;20367;-80
2022/08/03 00:04:18;;;;;;;10.40;6.80;;;21.50;64.90;;;;;;5070912;28;20029;-80
2022/08/03 00:06:43;;;;;;;11.02;7.50;;;21.60;65.00;;;;;;5072404;28;20543;-79
2022/08/03 00:09:10;;;;;;;13.00;8.15;;;21.50;65.30;;;;;;5054317;28;20116;-80
2022/08/03 00:11:36;;;;;;;17.33;6.95;;;21.60;65.00;;;;;;5063386;28;20025;-79
2022/08/03 00:14:04;;;;;;;8.38;6.68;;;21.50;65.10;;;;;;5053627;28;20094;-80
2022/08/03 00:16:30;;;;;;;12.45;6.63;;;21.50;65.30;;;;;;5054025;28;20078;-80
2022/08/03 00:18:55;;;;;;;11.40;7.15;;;21.50;65.10;;;;;;5054042;28;20433;-80
2022/08/03 00:21:21;;;;;;;13.85;7.47;;;21.50;65.10;;;;;;5053580;28;20441;-80
2022/08/03 00:23:50;;;;;;;14.65;7.78;;;21.50;64.90;;;;;;5066129;28;20075;-80
2022/08/03 00:26:15;;;;;;;8.40;6.78;;;21.50;65.00;;;;;;5072324;28;20426;-80
2022/08/03 00:28:41;;;;;;;12.02;7.07;;;21.40;64.70;;;;;;5072667;28;20055;-79
2022/08/03 00:31:07;;;;;;;10.10;7.28;;;21.40;65.00;;;;;;5072708;28;20016;-79
2022/08/03 00:33:34;;;;;;;13.30;7.45;;;21.30;64.80;;;;;;5071716;28;20075;-81
2022/08/03 00:36:00;;;;;;;15.50;8.02;;;21.30;65.10;;;;;;5072558;28;20513;-79
2022/08/03 00:38:26;;;;;;;14.10;7.90;;;21.30;65.30;;;;;;5072375;28;20409;-80
2022/08/03 00:40:52;;;;;;;11.60;7.18;;;21.20;65.20;;;;;;5072356;28;20035;-80
2022/08/03 00:43:18;;;;;;;11.43;7.05;;;21.20;65.70;;;;;;5071218;28;20031;-80
2022/08/03 00:45:43;;;;;;;13.95;7.32;;;21.20;65.50;;;;;;5054294;28;20038;-80
2022/08/03 00:48:11;;;;;;;12.65;7.50;;;21.20;65.60;;;;;;5072469;28;20129;-81
2022/08/03 00:50:41;;;;;;;10.25;7.30;;;21.10;65.80;;;;;;5072223;28;20017;-80
2022/08/03 00:53:11;;;;;;;13.70;7.55;;;21.10;65.70;;;;;;5072253;28;20035;-81
2022/08/03 00:55:37;;;;;;;11.52;6.60;;;21.10;65.90;;;;;;5071945;28;20042;-80
2022/08/03 00:58:05;;;;;;;13.60;7.50;;;21.00;65.90;;;;;;5071335;28;20028;-80
2022/08/03 01:00:40;;;;;;;14.77;6.82;;;21.00;65.90;;;;;;5071998;28;20074;-80
2022/08/03 01:03:10;;;;;;;12.75;7.63;;;21.10;66.00;;;;;;5071933;28;20077;-80
2022/08/03 01:06:05;;;;;;;15.80;8.13;;;21.00;66.10;;;;;;5073536;28;20024;-81
2022/08/03 01:08:49;;;;;;;11.90;7.13;;;21.00;66.30;;;;;;5072094;28;20373;-81
2022/08/03 01:11:29;;;;;;;11.75;7.72;;;21.00;66.40;;;;;;5071789;28;20024;-81
2022/08/03 01:14:08;;;;;;;10.82;8.20;;;21.00;66.50;;;;;;5071807;28;20089;-81
2022/08/03 01:16:58;;;;;;;16.05;8.20;;;20.90;66.60;;;;;;5070861;28;20131;-81
2022/08/03 01:19:29;;;;;;;25.60;10.40;;;20.90;66.80;;;;;;5071545;28;20032;-82
2022/08/03 01:22:15;;;;;;;10.40;7.57;;;20.90;66.80;;;;;;5071900;28;20028;-81
2022/08/03 01:24:58;;;;;;;13.27;7.43;;;20.90;66.90;;;;;;5071677;28;20112;-79
2022/08/03 01:27:51;;;;;;;13.55;8.23;;;20.90;67.00;;;;;;5071747;28;20316;-80
2022/08/03 01:30:17;;;;;;;14.85;8.10;;;20.90;66.90;;;;;;5059787;28;20515;-80
2022/08/03 01:32:59;;;;;;;15.93;7.95;;;20.90;67.20;;;;;;5071564;28;20571;-79
2022/08/03 01:35:59;;;;;;;20.33;8.45;;;20.90;68.20;;;;;;5070703;28;20363;-79
2022/08/03 01:38:30;;;;;;;11.73;7.90;;;20.80;67.50;;;;;;5051746;28;20060;-80
2022/08/03 01:41:01;;;;;;;12.27;8.55;;;20.80;68.00;;;;;;5053394;28;20032;-79
2022/08/03 01:43:29;;;;;;;9.90;7.95;;;20.70;68.30;;;;;;5057502;28;20079;-79
2022/08/03 01:45:56;;;;;;;13.02;8.45;;;20.70;68.40;;;;;;5071511;28;20115;-80
2022/08/03 01:48:23;;;;;;;18.17;9.05;;;20.70;68.60;;;;;;5052008;28;20500;-80
2022/08/03 01:50:50;;;;;;;12.60;8.82;;;20.70;68.80;;;;;;5070666;28;20024;-79
2022/08/03 01:53:17;;;;;;;18.23;9.48;;;20.70;69.10;;;;;;5068890;28;20039;-80
2022/08/03 01:55:47;;;;;;;12.45;8.30;;;20.70;69.10;;;;;;5071661;28;20044;-82
2022/08/03 01:58:17;;;;;;;10.73;8.18;;;20.70;69.00;;;;;;5053989;28;20396;-79
2022/08/03 02:00:44;;;;;;;19.77;8.60;;;20.80;68.70;;;;;;5072440;28;20029;-80
2022/08/03 02:03:12;;;;;;;16.75;8.32;;;20.80;68.90;;;;;;5071588;28;20020;-81
2022/08/03 02:05:44;;;;;;;11.02;8.35;;;20.80;68.70;;;;;;5071387;28;20033;-80
2022/08/03 02:08:13;;;;;;;13.93;7.60;;;20.80;68.60;;;;;;5071762;28;20363;-80
2022/08/03 02:10:40;;;;;;;9.95;7.93;;;20.80;68.60;;;;;;5070731;28;20052;-80
2022/08/03 02:13:08;;;;;;;12.70;8.98;;;20.80;68.70;;;;;;5071624;28;20025;-80
2022/08/03 02:15:36;;;;;;;10.48;8.20;;;20.80;68.50;;;;;;5071481;28;20016;-81
2022/08/03 02:18:04;;;;;;;13.93;7.95;;;20.90;68.80;;;;;;5071569;28;20095;-81
2022/08/03 02:20:35;;;;;;;12.18;8.13;;;21.00;68.70;;;;;;5076065;28;20095;-80
2022/08/03 02:23:01;;;;;;;12.35;8.35;;;21.00;68.40;;;;;;5075079;28;20049;-81
2022/08/03 02:25:29;;;;;;;10.85;8.18;;;21.00;68.20;;;;;;5070450;28;20154;-81
2022/08/03 02:28:00;;;;;;;14.48;8.93;;;21.00;68.10;;;;;;5057584;28;20052;-81
2022/08/03 02:30:32;;;;;;;13.65;8.18;;;21.00;68.20;;;;;;5071557;28;20028;-82
2022/08/03 02:33:00;;;;;;;12.05;8.93;;;21.10;68.40;;;;;;5071090;28;20024;-81
2022/08/03 02:35:28;;;;;;;12.30;8.88;;;21.20;68.60;;;;;;5071262;28;20435;-81
2022/08/03 02:37:59;;;;;;;11.30;8.35;;;21.20;68.00;;;;;;5071122;28;20044;-80
2022/08/03 02:40:28;;;;;;;10.32;8.57;;;21.20;68.20;;;;;;5071239;28;20133;-80
2022/08/03 02:42:59;;;;;;;14.60;9.73;;;21.20;68.10;;;;;;5070475;28;20260;-80
2022/08/03 02:45:28;;;;;;;11.77;8.77;;;21.30;68.10;;;;;;5071597;28;20465;-81
2022/08/03 02:47:59;;;;;;;11.85;8.48;;;21.30;68.10;;;;;;5071117;28;20374;-82
2022/08/03 02:50:26;;;;;;;15.32;8.98;;;21.30;67.90;;;;;;5075948;28;20024;-81
2022/08/03 02:52:52;;;;;;;;;;;21.40;67.90;;;;;;5056404;28;20553;-81
2022/08/03 02:55:21;;;;;;;10.80;8.10;;;21.50;67.40;;;;;;5074711;28;19999;-81
2022/08/03 02:57:48;;;;;;;11.00;8.40;;;21.50;67.70;;;;;;5074663;28;20407;-82
2022/08/03 03:00:14;;;;;;;12.25;7.80;;;21.70;67.20;;;;;;5074964;28;20128;-82
2022/08/03 03:02:41;;;;;;;9.68;8.45;;;21.70;66.90;;;;;;5059057;28;20025;-82
2022/08/03 03:05:08;;;;;;;8.60;7.70;;;21.80;66.90;;;;;;5056573;28;20157;-82
2022/08/03 03:07:36;;;;;;;11.50;8.73;;;21.80;66.60;;;;;;5074858;28;20043;-83
2022/08/03 03:10:03;;;;;;;10.05;8.63;;;21.90;66.50;;;;;;5074893;28;20016;-80
2022/08/03 03:12:30;;;;;;;18.15;9.32;;;21.90;66.60;;;;;;5074536;28;20027;-82
2022/08/03 03:14:56;;;;;;;10.68;8.50;;;22.00;66.30;;;;;;5074240;28;20021;-82
2022/08/03 03:17:24;;;;;;;14.75;8.82;;;22.10;66.30;;;;;;5073163;28;20024;-81
2022/08/03 03:19:51;;;;;;;;;;;22.10;66.00;;;;;;5074754;28;20032;-82
2022/08/03 03:22:18;;;;;;;11.55;8.82;;;22.10;65.80;;;;;;5073801;28;19905;-80
2022/08/03 03:24:46;;;;;;;13.43;9.10;;;22.10;66.10;;;;;;5074053;28;20079;-81
2022/08/03 03:27:14;;;;;;;14.60;7.97;;;22.10;65.90;;;;;;5074726;28;20482;-81
2022/08/03 03:29:40;;;;;;;19.98;9.20;;;22.20;66.20;;;;;;5056210;28;20024;-81
2022/08/03 03:32:06;;;;;;;12.45;10.25;;;22.20;66.00;;;;;;5073171;28;20494;-82
2022/08/03 03:34:33;;;;;;;13.10;9.98;;;22.30;65.80;;;;;;5073819;28;20044;-82
2022/08/03 03:37:00;;;;;;;19.05;10.70;;;22.20;65.80;;;;;;5063047;28;20021;-82
2022/08/03 03:39:26;;;;;;;16.95;9.52;;;22.20;65.70;;;;;;5068038;28;20031;-81
2022/08/03 03:41:52;;;;;;;13.05;9.82;;;22.30;65.80;;;;;;5062789;28;20107;-82
2022/08/03 03:44:18;;;;;;;14.95;10.02;;;22.30;66.10;;;;;;5072507;28;20033;-82
2022/08/03 03:46:44;;;;;;;17.08;9.20;;;22.40;66.00;;;;;;5059839;28;20070;-81
2022/08/03 03:49:10;;;;;;;17.08;11.02;;;22.50;65.70;;;;;;5066090;28;20020;-80
2022/08/03 03:51:35;;;;;;;21.73;11.10;;;22.60;65.60;;;;;;5064775;28;20050;-80
2022/08/03 03:54:06;;;;;;;13.85;10.27;;;22.80;65.40;;;;;;5073713;28;20025;-79
2022/08/03 03:56:32;;;;;;;15.95;11.23;;;22.80;65.50;;;;;;5073671;28;20022;-81
2022/08/03 03:58:58;;;;;;;16.15;11.32;;;22.90;64.70;;;;;;5074221;28;20039;-79
2022/08/03 04:01:24;;;;;;;21.27;11.02;;;22.90;64.50;;;;;;5057117;28;20032;-81
2022/08/03 04:03:50;;;;;;;12.38;10.73;;;23.00;64.70;;;;;;5080635;28;20386;-82
2022/08/03 04:11:56;;;;;;;14.02;10.68;;;22.90;64.90;;;;;;5074242;28;20032;-81
2022/08/03 04:14:27;;;;;;;13.15;9.45;;;22.90;64.90;;;;;;5073207;28;20497;-81
2022/08/03 04:17:02;;;;;;;20.95;11.07;;;23.00;64.90;;;;;;5073124;28;20032;-82
2022/08/03 04:19:30;;;;;;;21.65;11.13;;;23.00;64.50;;;;;;5059777;28;20103;-82
2022/08/03 04:21:59;;;;;;;24.27;14.90;;;23.10;64.80;;;;;;5071783;28;20047;-81
2022/08/03 04:24:45;;;;;;;20.45;11.75;;;23.20;65.00;;;;;;5072559;28;20412;-81
2022/08/03 04:27:14;;;;;;;17.77;10.73;;;23.40;63.80;;;;;;5072725;28;20024;-83
2022/08/03 04:29:45;;;;;;;14.98;11.23;;;23.50;63.60;;;;;;5072718;28;20245;-81
2022/08/03 04:32:12;;;;;;;18.60;11.57;;;23.60;63.40;;;;;;5072954;28;20036;-83
2022/08/03 04:34:38;;;;;;;;;;;23.60;63.10;;;;;;5073475;28;20117;-82
2022/08/03 04:37:10;;;;;;;18.33;10.52;;;23.60;63.10;;;;;;5072265;28;19912;-82
2022/08/03 04:39:40;;;;;;;17.30;10.27;;;23.60;62.90;;;;;;5072654;28;20031;-83
2022/08/03 04:42:10;;;;;;;23.02;12.93;;;23.60;63.40;;;;;;5072047;28;20122;-82
2022/08/03 04:44:39;;;;;;;17.40;11.50;;;23.60;63.50;;;;;;5072477;28;20020;-82
2022/08/03 04:47:05;;;;;;;18.13;10.65;;;23.70;63.10;;;;;;5072643;28;20020;-81
2022/08/03 04:49:33;;;;;;;20.00;10.60;;;23.80;63.00;;;;;;5072132;28;20474;-83
2022/08/03 04:52:00;;;;;;;20.88;10.95;;;23.90;62.80;;;;;;5072237;28;20019;-82
2022/08/03 04:54:26;;;;;;;16.38;10.45;;;24.00;63.00;;;;;;5072133;28;20024;-82
2022/08/03 04:56:51;;;;;;;16.30;9.52;;;24.20;62.40;;;;;;5071242;28;20029;-81
2022/08/03 04:59:17;;;;;;;20.67;10.40;;;24.30;61.60;;;;;;5072419;28;20040;-82
2022/08/03 05:01:43;;;;;;;22.17;11.23;;;24.80;61.30;;;;;;5072172;28;20024;-82
2022/08/03 05:04:09;;;;;;;18.48;9.82;;;25.40;59.30;;;;;;5072198;28;20099;-82
2022/08/03 05:06:35;;;;;;;17.75;9.73;;;26.10;57.30;;;;;;5072158;28;20028;-81
2022/08/03 05:09:01;;;;;;;20.55;9.52;;;26.70;56.10;;;;;;5071830;28;20020;-82
2022/08/03 05:11:27;;;;;;;15.40;8.98;;;27.40;54.50;;;;;;5054219;28;20025;-82
2022/08/03 05:13:52;;;;;;;15.15;8.80;;;28.00;53.30;;;;;;5070184;28;20107;-82
2022/08/03 05:16:18;;;;;;;21.52;10.15;;;28.70;51.80;;;;;;5071973;28;20082;-82
2022/08/03 05:18:44;;;;;;;13.18;8.18;;;29.00;51.10;;;;;;5071696;28;20027;-82
2022/08/03 05:21:13;;;;;;;19.93;9.60;;;29.40;50.50;;;;;;5071660;28;20055;-83
2022/08/03 05:23:40;;;;;;;16.45;8.38;;;29.70;49.40;;;;;;5071932;28;20056;-82
2022/08/03 05:26:05;;;;;;;;;;;30.10;49.20;;;;;;5072184;28;20070;-82
2022/08/03 05:28:31;;;;;;;26.83;9.73;;;30.40;49.10;;;;;;5071878;28;19905;-82
2022/08/03 05:30:57;;;;;;;22.98;9.60;;;30.60;47.80;;;;;;5072554;28;20048;-83
2022/08/03 05:33:23;;;;;;;25.25;8.63;;;31.00;47.10;;;;;;5071868;28;20032;-83
2022/08/03 05:35:49;;;;;;;28.48;9.35;;;31.60;46.50;;;;;;5071553;28;20021;-83
2022/08/03 05:38:14;;;;;;;15.90;8.73;;;32.30;45.50;;;;;;5071830;28;20028;-83
2022/08/03 05:40:40;;;;;;;18.83;8.60;;;32.60;45.00;;;;;;5071470;28;20104;-81
2022/08/03 05:43:06;;;;;;;15.50;9.10;;;33.30;44.50;;;;;;5071601;28;20175;-85
2022/08/03 05:45:32;;;;;;;17.07;8.67;;;33.90;44.00;;;;;;5072133;28;20111;-81
2022/08/03 05:47:57;;;;;;;14.40;9.23;;;34.30;42.20;;;;;;5071980;28;20033;-82
2022/08/03 05:50:23;;;;;;;17.83;8.60;;;34.40;42.60;;;;;;5071364;28;20067;-83
2022/08/03 05:52:49;;;;;;;22.73;9.97;;;34.50;41.90;;;;;;5071179;28;20024;-83
2022/08/03 05:55:15;;;;;;;20.17;8.90;;;35.00;41.80;;;;;;5071269;28;20386;-83
2022/08/03 05:57:42;;;;;;;19.85;8.68;;;35.10;41.20;;;;;;5071390;28;20020;-83
2022/08/03 06:00:09;;;;;;;;;;;35.20;40.90;;;;;;5053536;28;20036;-81
2022/08/03 06:02:35;;;;;;;15.40;6.78;;;35.90;41.60;;;;;;5070562;28;19912;-82
2022/08/03 06:05:01;;;;;;;13.47;6.77;;;36.80;39.60;;;;;;5058005;28;20021;-82
2022/08/03 06:07:27;;;;;;;16.63;6.50;;;37.40;39.10;;;;;;5076020;28;20489;-81
2022/08/03 06:09:53;;;;;;;11.38;6.80;;;38.00;37.80;;;;;;5072347;28;20021;-82
2022/08/03 06:12:19;;;;;;;16.50;6.55;;;38.20;37.00;;;;;;5071230;28;20028;-81
2022/08/03 06:14:45;;;;;;;12.27;6.60;;;;;;;;;;5071381;28;20029;-83
2022/08/03 06:17:12;;;;;;;14.70;5.88;;;;;;;;;;5070406;28;20021;-82
2022/08/03 06:19:38;;;;;;;12.07;6.68;;;;;;;;;;5070724;28;20103;-82
2022/08/03 06:22:04;;;;;;;14.70;6.95;;;;;;;;;;5070553;28;20082;-82
2022/08/03 06:24:31;;;;;;;12.93;5.72;;;;;;;;;;5071453;28;20110;-82
2022/08/03 06:26:57;;;;;;;12.93;5.30;;;38.30;36.40;;;;;;5073998;28;20012;-84
2022/08/03 06:29:23;;;;;;;8.45;5.28;;;39.60;34.80;;;;;;5056534;28;20024;-83
2022/08/03 06:31:49;;;;;;;11.63;5.97;;;;;;;;;;5056938;28;20032;-82
2022/08/03 06:34:15;;;;;;;15.45;5.38;;;;;;;;;;5073803;28;20032;-81
2022/08/03 06:36:41;;;;;;;17.75;6.00;;;;;;;;;;5075122;28;20031;-88
2022/08/03 06:39:08;;;;;;;11.40;5.50;;;;;;;;;;5077258;28;20042;-82
2022/08/03 06:41:34;;;;;;;10.30;4.60;;;;;;;;;;5075315;28;20281;-83
2022/08/03 06:44:00;;;;;;;11.82;4.57;;;;;;;;;;5074396;28;20120;-83
2022/08/03 06:46:26;;;;;;;13.55;5.40;;;;;;;;;;5074213;28;20081;-83
2022/08/03 06:48:52;;;;;;;7.97;4.10;;;;;;;;;;5073725;28;20496;-83
2022/08/03 06:51:18;;;;;;;14.48;4.72;;;;;;;;;;5074626;28;20525;-84
2022/08/03 06:53:44;;;;;;;6.85;4.30;;;;;;;;;;5074570;28;20017;-82
2022/08/03 06:56:10;;;;;;;14.20;6.82;;;;;;;;;;5074517;28;20035;-84
2022/08/03 06:58:37;;;;;;;8.93;4.82;;;;;;;;;;5074271;28;20027;-83
2022/08/03 07:01:03;;;;;;;13.63;6.53;;;;;;;;;;5074366;28;20059;-83
2022/08/03 07:03:29;;;;;;;13.82;5.80;;;;;;;;;;5074214;28;20484;-83
2022/08/03 07:05:55;;;;;;;14.23;4.65;;;41.90;33.50;;;;;;5055910;28;20378;-85
2022/08/03 07:08:20;;;;;;;7.95;4.03;;;38.60;35.60;;;;;;5073976;28;20016;-83
2022/08/03 07:10:46;;;;;;;11.13;3.80;;;39.40;33.30;;;;;;5073956;28;20499;-83
2022/08/03 07:13:12;;;;;;;8.73;4.00;;;40.50;32.90;;;;;;5074348;28;20025;-83
2022/08/03 07:15:39;;;;;;;6.30;3.30;;;;;;;;;;5073916;28;20029;-83
2022/08/03 07:18:05;;;;;;;10.45;4.63;;;41.50;32.00;;;;;;5074306;28;20020;-82
2022/08/03 07:20:32;;;;;;;10.20;4.32;;;42.90;30.70;;;;;;5073792;28;20029;-84
2022/08/03 07:23:30;;;;;;;11.90;3.67;;;43.60;30.00;;;;;;5072808;28;20557;-83
2022/08/03 07:25:55;;;;;;;11.35;3.75;;;43.80;30.00;;;;;;5055803;28;20162;-83
2022/08/03 07:28:21;;;;;;;;;;;43.50;29.40;;;;;;5056325;28;20124;-84
2022/08/03 07:30:47;;;;;;;8.93;3.40;;;43.80;30.40;;;;;;5055943;28;19950;-84
2022/08/03 07:33:13;;;;;;;;;;;44.30;29.00;;;;;;5074123;28;20544;-83
2022/08/03 07:35:39;;;;;;;4.20;2.55;;;44.40;29.60;;;;;;5072989;28;20292;-82
2022/08/03 07:38:05;;;;;;;;;;;44.00;28.90;;;;;;5073319;28;20042;-83
2022/08/03 07:40:31;;;;;;;6.35;3.65;;;43.70;29.80;;;;;;5073222;28;20017;-84
2022/08/03 07:42:58;;;;;;;6.57;3.50;;;42.80;29.30;;;;;;5073729;28;20012;-83
2022/08/03 07:45:25;;;;;;;8.93;4.75;;;42.10;30.00;;;;;;5064884;28;20055;-83
2022/08/03 07:47:51;;;;;;;10.82;6.07;;;41.90;30.20;;;;;;5070387;28;20358;-84
2022/08/03 07:50:17;;;;;;;13.02;6.63;;;40.80;30.50;;;;;;5074820;28;20023;-83
2022/08/03 07:52:48;;;;;;;4.45;3.58;;;39.20;31.90;;;;;;5074081;28;20115;-82
2022/08/03 07:55:15;;;;;;;5.78;3.13;;;38.00;31.80;;;;;;5054830;28;20037;-84
2022/08/03 07:57:43;;;;;;;9.73;4.15;;;37.10;32.60;;;;;;5073252;28;20588;-85
2022/08/03 08:00:13;;;;;;;10.45;3.85;;;;;;;;;;5073284;28;20028;-84
2022/08/03 08:02:40;;;;;;;5.93;4.03;;;36.30;33.50;;;;;;5073569;28;20025;-83
2022/08/03 08:05:06;;;;;;;;;;;35.70;34.00;;;;;;5073434;28;20482;-83
2022/08/03 08:07:32;;;;;;;7.25;3.88;;;;;;;;;;5074788;28;19908;-85
2022/08/03 08:09:58;;;;;;;6.07;3.70;;;;;;;;;;5077347;28;20016;-82
2022/08/03 08:12:24;;;;;;;7.85;3.88;;;;;;;;;;5074820;28;20047;-83
2022/08/03 08:14:51;;;;;;;10.88;4.47;;;;;;;;;;5073519;28;20020;-82
2022/08/03 08:17:18;;;;;;;9.27;4.28;;;;;;;;;;5072610;28;20471;-82
2022/08/03 08:19:44;;;;;;;5.90;4.35;;;35.40;34.20;;;;;;5072777;28;20082;-83
2022/08/03 08:22:10;;;;;;;12.82;4.68;;;39.10;32.70;;;;;;5072345;28;20478;-83
2022/08/03 08:24:36;;;;;;;8.38;4.03;;;40.60;32.00;;;;;;5072820;28;20036;-83
2022/08/03 08:27:01;;;;;;;7.13;3.90;;;42.30;30.70;;;;;;5072177;28;20032;-82
2022/08/03 08:29:27;;;;;;;;;;;43.80;29.80;;;;;;5072764;28;20140;-83
2022/08/03 08:31:53;;;;;;;8.80;4.63;;;44.30;29.60;;;;;;5073081;28;19909;-83
2022/08/03 08:34:19;;;;;;;;;;;43.60;29.10;;;;;;5072907;28;20091;-83
2022/08/03 08:36:44;;;;;;;11.63;4.85;;;42.80;29.80;;;;;;5072427;28;20262;-85
2022/08/03 08:39:11;;;;;;;;;;;41.90;30.10;;;;;;5072670;28;20102;-83
2022/08/03 08:41:37;;;;;;;10.05;3.97;;;42.20;30.80;;;;;;5054633;28;19912;-82
2022/08/03 08:44:03;;;;;;;6.25;3.92;;;43.00;29.80;;;;;;5062846;28;20023;-83
2022/08/03 08:46:32;;;;;;;10.00;4.40;;;44.40;29.60;;;;;;5071677;28;20044;-83
2022/08/03 08:48:59;;;;;;;9.80;3.72;;;45.00;29.10;;;;;;5053789;28;20025;-85
2022/08/03 08:51:29;;;;;;;6.90;3.42;;;;;;;;;;5071982;28;20052;-83
2022/08/03 08:53:56;;;;;;;10.20;3.50;;;;;;;;;;5072460;28;20474;-84
2022/08/03 08:56:25;;;;;;;16.00;7.00;;;;;;;;;;5072030;28;20024;-83
2022/08/03 08:58:53;;;;;;;7.93;4.38;;;45.50;28.60;;;;;;5072058;28;20123;-83
2022/08/03 09:01:20;;;;;;;6.35;4.60;;;40.00;30.50;;;;;;5072092;28;20032;-83
2022/08/03 09:03:47;;;;;;;12.80;5.55;;;;;;;;;;5070947;28;20023;-83
2022/08/03 09:06:13;;;;;;;8.23;6.28;;;36.40;35.10;;;;;;5071704;28;20024;-84
2022/08/03 09:08:39;;;;;;;9.13;7.22;;;35.80;35.20;;;;;;5071825;28;20047;-84
2022/08/03 09:11:06;;;;;;;8.30;5.90;;;35.60;36.20;;;;;;5072014;28;20561;-82
2022/08/03 09:13:33;;;;;;;8.48;4.78;;;36.30;36.00;;;;;;5058241;28;20029;-83
2022/08/03 09:16:19;;;;;;;6.32;4.07;;;35.90;36.10;;;;;;5039779;28;20422;-84
2022/08/03 09:18:48;;;;;;;6.60;4.60;;;35.30;35.90;;;;;;5053163;28;20080;-83
2022/08/03 09:21:20;;;;;;;11.60;6.30;;;36.20;36.20;;;;;;5086862;28;20036;-84
2022/08/03 09:23:49;;;;;;;10.05;4.20;;;38.30;34.80;;;;;;5071789;28;20091;-84
2022/08/03 09:26:26;;;;;;;9.65;4.40;;;39.90;32.60;;;;;;5071632;28;20035;-84
2022/08/03 09:29:01;;;;;;;10.68;4.68;;;40.20;32.80;;;;;;5087139;28;20393;-84
2022/08/03 09:31:38;;;;;;;7.22;4.15;;;41.80;31.60;;;;;;5072806;28;20013;-83
2022/08/03 09:34:09;;;;;;;13.00;7.07;;;43.40;30.80;;;;;;5054992;28;20431;-84
2022/08/03 09:36:43;;;;;;;11.43;6.45;;;;;;;;;;5052596;28;20024;-83
2022/08/03 09:39:10;;;;;;;19.90;10.25;;;;;;;;;;5072006;28;20107;-83
2022/08/03 09:41:37;;;;;;;6.22;4.40;;;;;;;;;;5071542;28;20043;-83
2022/08/03 09:44:03;;;;;;;4.43;3.67;;;;;;;;;;5071514;28;20138;-83
2022/08/03 09:46:33;;;;;;;7.55;4.40;;;;;;;;;;5071392;28;20472;-83
2022/08/03 09:49:09;;;;;;;4.88;3.70;;;;;;;;;;5071465;28;20021;-83
2022/08/03 09:51:35;;;;;;;7.60;3.97;;;;;;;;;;5071174;28;20162;-83
2022/08/03 09:54:03;;;;;;;7.90;4.30;;;;;;;;;;5071463;28;20478;-84
2022/08/03 09:56:42;;;;;;;10.90;5.65;;;;;;;;;;5071195;28;20380;-84
2022/08/03 09:59:10;;;;;;;7.30;4.15;;;44.50;30.60;;;;;;5073103;28;20044;-84
2022/08/03 10:01:40;;;;;;;9.38;3.95;;;43.10;29.20;;;;;;5082500;28;20015;-84
2022/08/03 10:04:15;;;;;;;8.57;3.85;;;42.80;30.00;;;;;;5076717;28;20503;-83
2022/08/03 10:06:44;;;;;;;8.30;3.90;;;43.50;29.70;;;;;;5077953;28;20030;-84
2022/08/03 10:09:09;;;;;;;8.00;3.45;;;44.10;29.50;;;;;;5084813;28;20055;-83
2022/08/03 10:11:36;;;;;;;6.13;3.92;;;44.40;29.20;;;;;;5070560;28;20481;-83
2022/08/03 10:14:08;;;;;;;7.35;4.18;;;45.00;28.90;;;;;;5086011;28;20354;-85
2022/08/03 10:16:37;;;;;;;6.57;3.75;;;45.10;28.80;;;;;;5077052;28;20032;-84
2022/08/03 10:19:07;;;;;;;6.32;3.45;;;45.00;28.60;;;;;;5058448;28;20500;-83
2022/08/03 10:21:40;;;;;;;7.43;4.25;;;43.90;29.00;;;;;;5075150;28;20070;-83
2022/08/03 10:24:08;;;;;;;6.00;4.93;;;42.60;29.50;;;;;;5074840;28;20052;-83
2022/08/03 10:26:39;;;;;;;7.03;4.00;;;42.50;29.80;;;;;;5073995;28;20485;-83
2022/08/03 10:29:10;;;;;;;6.32;3.97;;;42.80;29.60;;;;;;5057189;28;20028;-83
2022/08/03 10:31:43;;;;;;;9.77;4.95;;;43.40;29.50;;;;;;5074790;28;20481;-84
2022/08/03 10:34:22;;;;;;;10.40;4.35;;;42.50;29.40;;;;;;5056640;28;20161;-84
2022/08/03 10:36:52;;;;;;;6.60;3.53;;;41.00;30.30;;;;;;5056752;28;20430;-83
2022/08/03 10:39:21;;;;;;;7.40;4.45;;;39.50;31.80;;;;;;5074876;28;20056;-84
2022/08/03 10:41:48;;;;;;;7.15;4.53;;;38.30;32.90;;;;;;5073831;28;20036;-83
2022/08/03 10:44:18;;;;;;;9.43;5.10;;;37.40;33.80;;;;;;5074771;28;20389;-83
2022/08/03 10:46:47;;;;;;;8.02;5.13;;;36.40;34.80;;;;;;5076876;28;20059;-84
2022/08/03 10:49:14;;;;;;;6.93;4.40;;;34.90;35.70;;;;;;5074512;28;20025;-84
2022/08/03 10:51:44;;;;;;;8.35;5.00;;;34.10;37.20;;;;;;5074502;28;20020;-83
2022/08/03 10:54:36;;;;;;;7.85;5.43;;;33.70;37.40;;;;;;5074504;28;20520;-84
2022/08/03 10:59:47;;;;;;;6.55;4.53;;;32.80;38.30;;;;;;5074525;28;20496;-85
2022/08/03 11:02:14;;;;;;;8.20;5.57;;;32.70;38.40;;;;;;5056503;28;20064;-84
2022/08/03 11:04:44;;;;;;;;;;;32.30;38.60;;;;;;5074758;28;20427;-85
2022/08/03 11:07:23;;;;;;;6.53;5.32;;;32.10;43.20;;;;;;5056274;28;19966;-83
2022/08/03 11:09:54;;;;;;;7.55;4.43;;;32.10;42.00;;;;;;5074017;28;20029;-82
2022/08/03 11:12:27;;;;;;;8.23;5.28;;;32.30;41.50;;;;;;5072718;28;20099;-83
2022/08/03 11:14:55;;;;;;;6.15;4.75;;;32.40;40.80;;;;;;5073423;28;20028;-84
2022/08/03 11:17:21;;;;;;;5.75;5.13;;;32.20;40.40;;;;;;5073889;28;20036;-84
2022/08/03 11:19:48;;;;;;;8.13;4.72;;;31.90;39.50;;;;;;5074203;28;20036;-85
2022/08/03 11:22:15;;;;;;;6.22;4.82;;;31.70;40.20;;;;;;5073670;28;20100;-82
2022/08/03 11:24:46;;;;;;;5.93;5.15;;;31.80;40.70;;;;;;5073978;28;20561;-84
2022/08/03 11:27:19;;;;;;;7.72;5.70;;;31.90;40.70;;;;;;5073674;28;20020;-83
2022/08/03 11:30:03;;;;;;;5.32;4.32;;;32.00;39.50;;;;;;5074160;28;20016;-83
2022/08/03 11:32:43;;;;;;;6.60;5.18;;;31.90;40.20;;;;;;5087505;28;20041;-84
2022/08/03 11:35:12;;;;;;;6.18;4.68;;;31.80;40.10;;;;;;5056006;28;20036;-82
2022/08/03 11:37:56;;;;;;;6.47;5.03;;;31.60;40.30;;;;;;5074998;28;20032;-82
2022/08/03 11:40:50;;;;;;;6.03;4.55;;;31.40;40.40;;;;;;5056114;28;20075;-85
2022/08/03 11:43:22;;;;;;;6.90;4.90;;;31.30;40.40;;;;;;5063371;28;20021;-82
2022/08/03 11:46:01;;;;;;;6.28;5.68;;;30.80;40.80;;;;;;5074819;28;20016;-83
2022/08/03 11:48:33;;;;;;;7.93;5.22;;;30.60;41.30;;;;;;5070418;28;20027;-85
2022/08/03 11:51:03;;;;;;;9.63;5.10;;;30.80;41.60;;;;;;5075175;28;20035;-84
2022/08/03 11:53:30;;;;;;;10.90;6.07;;;31.00;41.40;;;;;;5073701;28;20099;-83
2022/08/03 11:55:59;;;;;;;8.73;6.53;;;31.20;41.30;;;;;;5073365;28;20410;-85
2022/08/03 11:58:25;;;;;;;7.85;5.88;;;31.40;40.90;;;;;;5073360;28;20036;-85
2022/08/03 12:00:51;;;;;;;11.80;5.90;;;31.40;40.80;;;;;;5055199;28;20036;-84
2022/08/03 12:03:19;;;;;;;8.20;5.43;;;31.50;40.70;;;;;;5073220;28;20032;-84
2022/08/03 12:05:52;;;;;;;9.07;5.28;;;31.40;40.40;;;;;;5073168;28;20025;-83
2022/08/03 12:08:39;;;;;;;8.88;5.15;;;31.00;40.70;;;;;;5073442;28;20024;-84
2022/08/03 12:11:07;;;;;;;8.05;5.53;;;30.90;41.00;;;;;;5072497;28;20381;-84
2022/08/03 12:13:39;;;;;;;7.47;5.30;;;30.90;41.10;;;;;;5073250;28;20021;-84
2022/08/03 12:16:05;;;;;;;8.80;5.68;;;30.70;41.70;;;;;;5062324;28;20059;-83
2022/08/03 12:18:31;;;;;;;8.73;7.15;;;30.60;41.80;;;;;;5080393;28;20026;-83
2022/08/03 12:21:09;;;;;;;11.48;6.65;;;30.70;41.90;;;;;;5074572;28;20548;-83
2022/08/03 12:23:36;;;;;;;11.60;6.30;;;30.60;42.00;;;;;;5055806;28;20425;-83
2022/08/03 12:26:03;;;;;;;;;;;30.60;41.90;;;;;;5072447;28;20016;-83
2022/08/03 12:28:28;;;;;;;8.77;5.45;;;30.50;41.50;;;;;;5064322;28;19909;-83
2022/08/03 12:30:54;;;;;;;12.95;8.52;;;30.50;41.70;;;;;;5070711;28;20086;-84
2022/08/03 12:33:25;;;;;;;9.45;6.22;;;30.60;41.90;;;;;;5062308;28;20115;-82
2022/08/03 12:36:10;;;;;;;8.82;5.65;;;30.70;41.90;;;;;;5072404;28;20420;-85
2022/08/03 12:38:40;;;;;;;10.20;5.93;;;30.80;42.20;;;;;;5034552;28;20025;-84
2022/08/03 12:41:12;;;;;;;7.60;5.93;;;30.80;41.90;;;;;;5050253;28;20124;-85
2022/08/03 12:43:47;;;;;;;9.45;5.25;;;30.80;42.00;;;;;;5064903;28;20037;-84
2022/08/03 12:46:15;;;;;;;11.35;5.15;;;30.80;41.80;;;;;;5072447;28;20049;-84
2022/08/03 12:48:58;;;;;;;12.43;6.78;;;30.80;41.70;;;;;;5072940;28;20104;-83
2022/08/03 12:51:26;;;;;;;9.07;5.55;;;30.70;41.90;;;;;;5072276;28;20029;-85
2022/08/03 12:53:56;;;;;;;7.88;5.50;;;30.50;42.00;;;;;;5072631;28;20430;-86
2022/08/03 12:56:22;;;;;;;14.82;6.43;;;30.30;42.80;;;;;;5064706;28;20021;-83
2022/08/03 12:58:49;;;;;;;7.82;6.13;;;30.30;42.90;;;;;;5058039;28;20024;-85
2022/08/03 13:01:16;;;;;;;8.85;5.72;;;30.30;42.50;;;;;;5073607;28;20033;-85
2022/08/03 13:03:44;;;;;;;13.32;6.35;;;30.30;42.80;;;;;;5075866;28;20017;-84
2022/08/03 13:06:12;;;;;;;13.80;6.53;;;30.30;43.00;;;;;;5072349;28;20029;-84
2022/08/03 13:08:38;;;;;;;11.63;6.43;;;30.30;42.60;;;;;;5057802;28;20013;-83
2022/08/03 13:11:22;;;;;;;8.25;5.68;;;30.20;42.90;;;;;;5060351;28;20032;-85
2022/08/03 13:13:49;;;;;;;14.65;7.40;;;30.30;42.80;;;;;;5065778;28;20029;-86